createdAt,value
2023-03-21T00:00:43.885Z,98570.69
2023-03-21T00:03:10.060Z,98564.53
2023-03-21T00:05:36.814Z,98571.72
2023-03-21T00:08:03.480Z,98565.34
2023-03-21T00:10:39.558Z,98562.03
2023-03-21T00:13:09.570Z,98553.84
2023-03-21T00:15:42.554Z,98554.03
2023-03-21T00:18:14.737Z,98555.69
2023-03-21T00:20:40.876Z,98556.69
2023-03-21T00:23:06.979Z,98547.69
2023-03-21T00:25:33.337Z,98550.97
2023-03-21T00:28:07.925Z,98543.16
2023-03-21T00:30:34.907Z,98541.31
2023-03-21T00:33:05.895Z,98541.31
2023-03-21T00:35:58.354Z,98543.34
2023-03-21T00:38:24.515Z,98533.50
2023-03-21T00:40:50.750Z,98538.84
2023-03-21T00:43:16.843Z,98526.31
2023-03-21T00:45:42.949Z,98537.00
2023-03-21T00:48:09.122Z,98528.97
2023-03-21T00:50:35.286Z,98527.94
2023-03-21T00:53:01.392Z,98520.97
2023-03-21T00:55:27.609Z,98520.97
2023-03-21T00:58:01.590Z,98514.59
2023-03-21T01:00:28.280Z,98518.28
2023-03-21T01:03:00.226Z,98512.13
2023-03-21T01:05:27.758Z,98506.78
2023-03-21T01:07:53.981Z,98516.44
2023-03-21T01:10:20.144Z,98499.59
2023-03-21T01:12:46.360Z,98502.47
2023-03-21T01:15:12.469Z,98504.31
2023-03-21T01:17:38.637Z,98501.66
2023-03-21T01:20:04.889Z,98492.59
2023-03-21T01:22:31.141Z,98487.25
2023-03-21T01:25:08.721Z,98495.25
2023-03-21T01:27:38.478Z,98486.44
2023-03-21T01:30:11.303Z,98480.28
2023-03-21T01:32:43.781Z,98484.81
2023-03-21T01:35:09.980Z,98482.13
2023-03-21T01:37:36.195Z,98477.59
2023-03-21T01:40:02.388Z,98474.75
2023-03-21T01:42:28.598Z,98477.59
2023-03-21T01:44:54.826Z,98470.41
2023-03-21T01:47:21.044Z,98471.22
2023-03-21T01:49:47.248Z,98474.94
2023-03-21T01:52:23.616Z,98473.91
2023-03-21T01:54:56.188Z,98475.75
2023-03-21T01:57:22.605Z,98476.56
2023-03-21T01:59:50.268Z,98466.91
2023-03-21T02:02:18.800Z,98465.88
2023-03-21T02:04:44.906Z,98474.94
2023-03-21T02:07:11.086Z,98457.06
2023-03-21T02:09:37.307Z,98463.22
2023-03-21T02:12:03.504Z,98457.28
2023-03-21T02:14:29.783Z,98458.91
2023-03-21T02:16:56.031Z,98441.84
2023-03-21T02:19:29.607Z,98447.41
2023-03-21T02:21:59.083Z,98443.91
2023-03-21T02:24:25.404Z,98443.69
2023-03-21T02:27:01.388Z,98437.53
2023-03-21T02:29:29.415Z,98438.34
2023-03-21T02:31:58.780Z,98436.72
2023-03-21T02:34:27.054Z,98431.38
2023-03-21T02:36:53.297Z,98432.19
2023-03-21T02:39:19.624Z,98431.16
2023-03-21T02:41:45.775Z,98426.84
2023-03-21T02:44:12.068Z,98425.00
2023-03-21T02:46:47.049Z,98421.50
2023-03-21T02:49:15.796Z,98426.03
2023-03-21T02:51:42.051Z,98434.06
2023-03-21T02:54:28.208Z,98436.72
2023-03-21T02:56:54.287Z,98436.72
2023-03-21T02:59:20.424Z,98431.38
2023-03-21T03:01:46.641Z,98434.25
2023-03-21T03:04:12.905Z,98430.56
2023-03-21T03:06:39.056Z,98430.56
2023-03-21T03:09:05.163Z,98429.72
2023-03-21T03:11:31.447Z,98428.91
2023-03-21T03:13:58.123Z,98429.72
2023-03-21T03:16:24.411Z,98426.22
2023-03-21T03:18:50.601Z,98426.22
2023-03-21T03:21:16.800Z,98430.56
2023-03-21T03:23:43.092Z,98430.56
2023-03-21T03:26:09.264Z,98424.38
2023-03-21T03:28:35.435Z,98425.22
2023-03-21T03:31:09.136Z,98427.88
2023-03-21T03:33:36.255Z,98412.88
2023-03-21T03:36:06.418Z,98417.22
2023-03-21T03:38:33.161Z,98414.53
2023-03-21T03:40:59.309Z,98414.53
2023-03-21T03:43:25.516Z,98415.34
2023-03-21T03:45:51.687Z,98408.16
2023-03-21T03:48:18.629Z,98412.69
2023-03-21T03:50:44.907Z,98411.00
2023-03-21T03:53:18.043Z,98414.53
2023-03-21T03:55:44.838Z,98415.53
2023-03-21T03:58:22.747Z,98411.88
2023-03-21T04:00:49.860Z,98410.00
2023-03-21T04:03:16.060Z,98411.00
2023-03-21T04:05:42.266Z,98411.88
2023-03-21T04:08:08.432Z,98395.84
2023-03-21T04:10:34.769Z,98393.97
2023-03-21T04:13:00.934Z,98390.50
2023-03-21T04:15:27.228Z,98392.31
2023-03-21T04:17:53.418Z,98393.97
2023-03-21T04:20:30.284Z,98378.78
2023-03-21T04:23:02.629Z,98377.13
2023-03-21T04:25:33.833Z,98384.31
2023-03-21T04:28:00.247Z,98379.81
2023-03-21T04:30:26.632Z,98375.28
2023-03-21T04:32:52.811Z,98374.47
2023-03-21T04:35:18.984Z,98371.78
2023-03-21T04:37:45.218Z,98374.47
2023-03-21T04:40:11.470Z,98377.94
2023-03-21T04:42:37.793Z,98374.47
2023-03-21T04:45:03.940Z,98371.78
2023-03-21T04:47:30.047Z,98369.94
2023-03-21T04:49:56.264Z,98365.41
2023-03-21T04:52:24.889Z,98363.78
2023-03-21T04:54:51.552Z,98362.94
2023-03-21T04:57:17.777Z,98361.13
2023-03-21T04:59:44.570Z,98368.09
2023-03-21T05:02:10.781Z,98365.41
2023-03-21T05:04:36.963Z,98359.44
2023-03-21T05:07:03.191Z,98362.75
2023-03-21T05:09:29.277Z,98353.09
2023-03-21T05:11:55.416Z,98356.59
2023-03-21T05:14:21.607Z,98361.13
2023-03-21T05:16:47.815Z,98361.94
2023-03-21T05:19:14.106Z,98360.25
2023-03-21T05:21:40.761Z,98353.09
2023-03-21T05:24:06.858Z,98350.44
2023-03-21T05:26:32.980Z,98345.09
2023-03-21T05:28:59.199Z,98353.09
2023-03-21T05:31:25.465Z,98349.59
2023-03-21T05:33:51.622Z,98352.06
2023-03-21T05:36:17.805Z,98353.91
2023-03-21T05:38:43.987Z,98345.09
2023-03-21T05:41:10.119Z,98352.88
2023-03-21T05:43:36.258Z,98346.72
2023-03-21T05:46:02.399Z,98347.75
2023-03-21T05:48:28.553Z,98342.41
2023-03-21T05:50:54.747Z,98337.88
2023-03-21T05:53:23.166Z,98344.25
2023-03-21T05:55:49.477Z,98345.91
2023-03-21T05:58:15.638Z,98339.53
2023-03-21T06:00:41.781Z,98340.56
2023-03-21T06:03:07.927Z,98345.91
2023-03-21T06:05:34.129Z,98350.44
2023-03-21T06:08:00.230Z,98350.44
2023-03-21T06:10:26.335Z,98351.25
2023-03-21T06:12:52.498Z,98345.09
2023-03-21T06:15:18.609Z,98349.59
2023-03-21T06:17:44.761Z,98356.59
2023-03-21T06:20:10.904Z,98354.94
2023-03-21T06:22:37.010Z,98345.09
2023-03-21T06:25:03.150Z,98354.09
2023-03-21T06:27:29.326Z,98351.44
2023-03-21T06:29:55.454Z,98357.59
2023-03-21T06:32:21.559Z,98353.09
2023-03-21T06:34:47.707Z,98348.75
2023-03-21T06:37:13.828Z,98349.59
2023-03-21T06:39:39.949Z,98354.94
2023-03-21T06:42:06.053Z,98354.09
2023-03-21T06:44:32.181Z,98355.78
2023-03-21T06:46:58.321Z,98349.59
2023-03-21T06:49:24.488Z,98346.09
2023-03-21T06:51:50.592Z,98347.75
2023-03-21T06:54:16.808Z,98354.94
2023-03-21T06:56:43.023Z,98356.78
2023-03-21T06:59:09.197Z,98353.91
2023-03-21T07:01:35.352Z,98357.41
2023-03-21T07:04:01.544Z,98355.78
2023-03-21T07:06:27.698Z,98356.59
2023-03-21T07:08:53.875Z,98356.59
2023-03-21T07:11:20.551Z,98360.25
2023-03-21T07:13:46.733Z,98355.78
2023-03-21T07:16:13.029Z,98359.25
2023-03-21T07:18:39.252Z,98364.59
2023-03-21T07:21:05.390Z,98357.41
2023-03-21T07:23:31.574Z,98360.06
2023-03-21T07:25:58.052Z,98362.75
2023-03-21T07:28:24.236Z,98363.78
2023-03-21T07:30:51.542Z,98366.47
2023-03-21T07:33:17.706Z,98361.94
2023-03-21T07:35:43.941Z,98368.09
2023-03-21T07:38:10.252Z,98369.94
2023-03-21T07:40:36.850Z,98371.78
2023-03-21T07:45:34.326Z,98364.59
2023-03-21T07:48:00.619Z,98367.03
2023-03-21T07:50:26.797Z,98358.44
2023-03-21T07:52:52.965Z,98367.28
2023-03-21T07:55:19.105Z,98367.28
2023-03-21T07:57:45.278Z,98365.59
2023-03-21T08:00:11.388Z,98369.13
2023-03-21T08:02:37.738Z,98367.28
2023-03-21T08:05:03.980Z,98384.13
2023-03-21T08:07:30.124Z,98376.09
2023-03-21T08:09:56.247Z,98372.63
2023-03-21T08:12:22.385Z,98372.63
2023-03-21T08:14:48.583Z,98377.94
2023-03-21T08:17:14.758Z,98371.78
2023-03-21T08:19:40.910Z,98376.09
2023-03-21T08:22:07.048Z,98382.47
2023-03-21T08:24:33.188Z,98386.78
2023-03-21T08:26:59.278Z,98384.31
2023-03-21T08:29:25.448Z,98386.78
2023-03-21T08:31:51.779Z,98390.50
2023-03-21T08:34:17.913Z,98387.81
2023-03-21T08:36:44.019Z,98379.81
2023-03-21T08:39:10.145Z,98390.50
2023-03-21T08:41:36.238Z,98387.81
2023-03-21T08:44:02.375Z,98382.47
2023-03-21T08:46:28.688Z,98386.97
2023-03-21T08:48:54.854Z,98379.81
2023-03-21T08:51:20.947Z,98391.31
2023-03-21T08:53:47.072Z,98391.50
2023-03-21T08:56:13.164Z,98384.31
2023-03-21T08:58:39.265Z,98387.81
2023-03-21T09:01:05.443Z,98385.34
2023-03-21T09:03:31.540Z,98378.97
2023-03-21T09:05:57.729Z,98388.84
2023-03-21T09:08:23.894Z,98375.47
2023-03-21T09:10:50.041Z,98378.16
2023-03-21T09:13:16.193Z,98383.50
2023-03-21T09:15:42.855Z,98376.28
2023-03-21T09:18:09.029Z,98370.94
2023-03-21T09:20:35.213Z,98365.59
2023-03-21T09:23:02.546Z,98366.47
2023-03-21T09:25:28.672Z,98361.13
2023-03-21T09:27:54.861Z,98370.75
2023-03-21T09:30:21.079Z,98374.47
2023-03-21T09:32:47.395Z,98360.25
2023-03-21T09:35:13.652Z,98354.94
2023-03-21T09:37:39.865Z,98365.41
2023-03-21T09:40:06.187Z,98365.41
2023-03-21T09:42:32.341Z,98361.94
2023-03-21T09:44:58.543Z,98364.59
2023-03-21T09:47:24.719Z,98366.47
2023-03-21T09:49:51.149Z,98368.91
2023-03-21T09:52:17.953Z,98354.94
2023-03-21T09:54:44.068Z,98360.06
2023-03-21T09:57:10.194Z,98352.06
2023-03-21T09:59:36.378Z,98360.25
2023-03-21T10:02:02.584Z,98361.13
2023-03-21T10:04:28.914Z,98353.91
2023-03-21T10:06:55.088Z,98366.47
2023-03-21T10:09:21.227Z,98353.91
2023-03-21T10:11:47.345Z,98353.91
2023-03-21T10:14:13.530Z,98355.78
2023-03-21T10:16:39.675Z,98353.09
2023-03-21T10:19:05.810Z,98364.59
2023-03-21T10:21:58.602Z,98355.78
2023-03-21T10:24:18.263Z,98361.13
2023-03-21T10:26:44.478Z,98356.59
2023-03-21T10:29:10.765Z,98357.41
2023-03-21T10:31:36.957Z,98356.59
2023-03-21T10:34:03.133Z,98355.53
2023-03-21T10:36:29.289Z,98350.44
2023-03-21T10:38:55.423Z,98345.91
2023-03-21T10:41:21.628Z,98338.69
2023-03-21T10:43:47.779Z,98342.19
2023-03-21T10:46:14.136Z,98340.56
2023-03-21T10:48:40.498Z,98333.34
2023-03-21T10:51:06.751Z,98336.84
2023-03-21T10:53:32.871Z,98327.19
2023-03-21T10:55:59.000Z,98328.03
2023-03-21T10:58:25.204Z,98326.38
2023-03-21T11:00:51.404Z,98313.84
2023-03-21T11:03:17.617Z,98315.72
2023-03-21T11:05:43.743Z,98312.81
2023-03-21T11:08:10.024Z,98313.03
2023-03-21T11:10:36.158Z,98313.03
2023-03-21T11:13:02.274Z,98310.38
2023-03-21T11:15:28.362Z,98310.38
2023-03-21T11:17:54.575Z,98301.31
2023-03-21T11:20:20.766Z,98310.13
2023-03-21T11:22:46.999Z,98302.13
2023-03-21T11:25:13.611Z,98297.59
2023-03-21T11:27:39.713Z,98300.28
2023-03-21T11:30:05.825Z,98288.78
2023-03-21T11:32:32.057Z,98295.78
2023-03-21T11:34:58.237Z,98279.75
2023-03-21T11:37:24.374Z,98278.91
2023-03-21T11:39:50.680Z,98270.06
2023-03-21T11:42:16.858Z,98262.88
2023-03-21T11:44:42.985Z,98273.56
2023-03-21T11:47:09.183Z,98267.41
2023-03-21T11:49:35.317Z,98269.06
2023-03-21T11:52:01.431Z,98270.88
2023-03-21T11:54:27.607Z,98256.53
2023-03-21T11:56:53.703Z,98269.88
2023-03-21T11:59:19.833Z,98254.84
2023-03-21T12:01:45.971Z,98258.38
2023-03-21T12:04:12.271Z,98243.97
2023-03-21T12:06:38.544Z,98255.47
2023-03-21T12:09:04.768Z,98248.31
2023-03-21T12:11:30.892Z,98248.50
2023-03-21T12:13:56.995Z,98246.66
2023-03-21T12:16:23.320Z,98244.78
2023-03-21T12:18:49.498Z,98239.44
2023-03-21T12:21:15.646Z,98234.97
2023-03-21T12:23:41.839Z,98234.97
2023-03-21T12:26:07.964Z,98226.94
2023-03-21T12:28:34.087Z,98228.78
2023-03-21T12:31:00.284Z,98233.28
2023-03-21T12:33:26.471Z,98227.94
2023-03-21T12:35:52.619Z,98233.91
2023-03-21T12:38:18.877Z,98226.94
2023-03-21T12:40:45.012Z,98225.91
2023-03-21T12:43:11.202Z,98215.41
2023-03-21T12:45:46.701Z,98213.59
2023-03-21T12:48:13.701Z,98213.59
2023-03-21T12:50:39.842Z,98207.19
2023-03-21T12:53:05.963Z,98206.38
2023-03-21T12:55:32.054Z,98210.91
2023-03-21T12:57:58.236Z,98206.38
2023-03-21T13:00:24.404Z,98205.34
2023-03-21T13:02:50.578Z,98211.72
2023-03-21T13:05:16.783Z,98216.03
2023-03-21T13:07:42.881Z,98209.88
2023-03-21T13:10:09.035Z,98225.91
2023-03-21T13:12:35.221Z,98217.88
2023-03-21T13:15:02.661Z,98216.03
2023-03-21T13:17:29.645Z,98216.66
2023-03-21T13:19:55.758Z,98201.66
2023-03-21T13:22:21.916Z,98200.81
2023-03-21T13:24:48.069Z,98190.13
2023-03-21T13:27:14.392Z,98174.09
2023-03-21T13:29:40.502Z,98158.91
2023-03-21T13:32:06.755Z,98180.28
2023-03-21T13:34:32.902Z,98176.56
2023-03-21T13:36:59.014Z,98197.94
2023-03-21T13:39:25.145Z,98195.28
2023-03-21T13:41:51.334Z,98190.97
2023-03-21T13:44:17.466Z,98182.75
2023-03-21T13:46:52.893Z,98174.09
2023-03-21T13:49:20.296Z,98169.59
2023-03-21T13:51:46.480Z,98169.59
2023-03-21T13:54:12.602Z,98172.28
2023-03-21T13:56:38.780Z,98186.44
2023-03-21T13:59:04.940Z,98181.91
2023-03-21T14:01:31.166Z,98162.41
2023-03-21T14:03:57.346Z,98175.75
2023-03-21T14:06:23.510Z,98150.06
2023-03-21T14:08:49.770Z,98157.88
2023-03-21T14:11:15.954Z,98153.56
2023-03-21T14:13:50.961Z,98146.38
2023-03-21T14:16:17.874Z,98147.19
2023-03-21T14:18:59.259Z,98133.84
2023-03-21T14:21:25.500Z,98114.31
2023-03-21T14:23:51.623Z,98094.81
2023-03-21T14:26:17.735Z,98090.28
2023-03-21T14:28:44.352Z,98085.75
2023-03-21T14:31:10.532Z,98088.44
2023-03-21T14:33:36.680Z,98096.44
2023-03-21T14:36:02.903Z,98108.78
2023-03-21T14:38:29.029Z,98103.44
2023-03-21T14:40:55.207Z,98111.44
2023-03-21T14:43:21.305Z,98113.13
2023-03-21T14:45:47.480Z,98101.63
2023-03-21T14:48:13.675Z,98095.44
2023-03-21T14:50:40.462Z,98093.59
2023-03-21T14:53:06.562Z,98088.25
2023-03-21T14:55:32.705Z,98089.06
2023-03-21T14:57:58.837Z,98092.75
2023-03-21T15:00:24.939Z,98084.75
2023-03-21T15:02:51.074Z,98084.75
2023-03-21T15:05:17.425Z,98082.91
2023-03-21T15:07:43.564Z,98083.94
2023-03-21T15:10:09.685Z,98084.75
2023-03-21T15:12:35.919Z,98074.91
2023-03-21T15:15:02.014Z,98090.94
2023-03-21T15:17:28.133Z,98079.41
2023-03-21T15:19:54.259Z,98081.88
2023-03-21T15:22:20.673Z,98083.72
2023-03-21T15:24:46.824Z,98082.91
2023-03-21T15:27:15.315Z,98078.38
2023-03-21T15:29:41.546Z,98074.06
2023-03-21T15:32:07.725Z,98077.56
2023-03-21T15:34:33.897Z,98080.25
2023-03-21T15:37:00.024Z,98079.41
2023-03-21T15:39:26.165Z,98084.53
2023-03-21T15:41:52.286Z,98079.19
2023-03-21T15:44:18.410Z,98065.03
2023-03-21T15:46:44.562Z,98073.03
2023-03-21T15:49:10.774Z,98063.97
2023-03-21T15:51:36.895Z,98072.00
2023-03-21T15:54:02.984Z,98058.63
2023-03-21T15:56:29.148Z,98060.50
2023-03-21T15:58:55.270Z,98053.28
2023-03-21T16:01:21.457Z,98049.81
2023-03-21T16:03:47.620Z,98044.47
2023-03-21T16:06:13.725Z,98046.13
2023-03-21T16:08:39.814Z,98034.59
2023-03-21T16:11:05.932Z,98039.94
2023-03-21T16:13:32.021Z,98039.94
2023-03-21T16:15:58.198Z,98044.28
2023-03-21T16:18:24.348Z,98046.94
2023-03-21T16:20:50.442Z,98050.44
2023-03-21T16:23:16.545Z,98046.13
2023-03-21T16:25:42.654Z,98054.94
2023-03-21T16:28:08.760Z,98046.94
2023-03-21T16:30:34.892Z,98049.63
2023-03-21T16:33:00.997Z,98049.63
2023-03-21T16:35:27.112Z,98046.94
2023-03-21T16:37:53.216Z,98043.47
2023-03-21T16:40:19.349Z,98045.91
2023-03-21T16:42:45.470Z,98053.91
2023-03-21T16:45:11.572Z,98045.09
2023-03-21T16:47:37.742Z,98056.59
2023-03-21T16:50:03.852Z,98047.56
2023-03-21T16:52:30.127Z,98063.59
2023-03-21T16:54:56.386Z,98057.41
2023-03-21T16:57:22.559Z,98050.22
2023-03-21T16:59:48.729Z,98055.56
2023-03-21T17:02:14.881Z,98067.25
2023-03-21T17:04:40.971Z,98058.25
2023-03-21T17:07:07.119Z,98055.56
2023-03-21T17:09:33.320Z,98041.38
2023-03-21T17:11:59.523Z,98051.25
2023-03-21T17:14:25.649Z,98042.22
2023-03-21T17:16:51.842Z,98034.19
2023-03-21T17:19:18.046Z,98043.03
2023-03-21T17:21:44.160Z,98049.19
2023-03-21T17:24:10.305Z,98053.72
2023-03-21T17:26:36.474Z,98057.19
2023-03-21T17:29:02.619Z,98054.53
2023-03-21T17:31:28.848Z,98054.53
2023-03-21T17:33:55.011Z,98059.88
2023-03-21T17:36:21.169Z,98081.22
2023-03-21T17:38:47.354Z,98078.56
2023-03-21T17:41:13.532Z,98090.88
2023-03-21T17:43:39.777Z,98085.75
2023-03-21T17:46:06.010Z,98082.06
2023-03-21T17:48:32.160Z,98091.91
2023-03-21T17:50:58.249Z,98093.53
2023-03-21T17:53:24.388Z,98094.59
2023-03-21T17:55:50.498Z,98091.91
2023-03-21T17:58:16.602Z,98087.38
2023-03-21T18:00:42.961Z,98086.59
2023-03-21T18:03:09.088Z,98086.59
2023-03-21T18:05:35.230Z,98082.06
2023-03-21T18:08:10.185Z,98081.22
2023-03-21T18:10:36.948Z,98084.72
2023-03-21T18:13:03.327Z,98086.59
2023-03-21T18:15:30.444Z,98078.56
2023-03-21T18:17:56.806Z,98081.22
2023-03-21T18:20:23.724Z,98083.91
2023-03-21T18:22:50.405Z,98071.38
2023-03-21T18:25:16.562Z,98073.22
2023-03-21T18:28:10.033Z,98059.06
2023-03-21T18:30:56.435Z,98060.69
2023-03-21T18:33:19.535Z,98068.50
2023-03-21T18:35:46.797Z,98074.66
2023-03-21T18:38:12.992Z,98076.28
2023-03-21T18:40:39.750Z,98062.91
2023-03-21T18:43:49.980Z,98063.75
2023-03-21T18:45:52.200Z,98068.25
2023-03-21T18:48:18.422Z,98083.47
2023-03-21T18:50:44.601Z,98083.47
2023-03-21T18:53:10.753Z,98089.63
2023-03-21T18:55:46.105Z,98093.16
2023-03-21T18:58:13.771Z,98086.97
2023-03-21T19:00:40.129Z,98086.16
2023-03-21T19:03:19.297Z,98078.94
2023-03-21T19:05:50.830Z,98089.63
2023-03-21T19:08:16.955Z,98093.34
2023-03-21T19:10:43.260Z,98092.31
2023-03-21T19:13:09.436Z,98095.22
2023-03-21T19:15:35.558Z,98098.69
2023-03-21T19:20:47.761Z,98088.00
2023-03-21T19:23:13.943Z,98080.19
2023-03-21T19:25:40.101Z,98072.78
2023-03-21T19:28:06.235Z,98069.31
2023-03-21T19:30:32.344Z,98063.16
2023-03-21T19:32:58.467Z,98083.47
2023-03-21T19:35:25.214Z,98072.78
2023-03-21T19:37:51.364Z,98071.16
2023-03-21T19:40:17.472Z,98057.81
2023-03-21T19:42:44.092Z,98057.81
2023-03-21T19:45:10.215Z,98057.81
2023-03-21T19:47:36.448Z,98062.09
2023-03-21T19:52:48.626Z,98058.63
2023-03-21T19:55:14.762Z,98058.63
2023-03-21T19:57:40.883Z,98056.75
2023-03-21T20:00:07.002Z,98064.78
2023-03-21T20:02:36.380Z,98057.81
2023-03-21T20:05:02.961Z,98059.88
2023-03-21T20:07:29.067Z,98053.47
2023-03-21T20:09:57.295Z,98052.66
2023-03-21T20:12:23.617Z,98048.97
2023-03-21T20:14:53.779Z,98041.16
2023-03-21T20:17:24.307Z,98033.16
2023-03-21T20:19:50.456Z,98040.13
2023-03-21T20:22:24.605Z,98044.66
2023-03-21T20:24:54.143Z,98029.44
2023-03-21T20:27:20.231Z,98023.28
2023-03-21T20:30:08.585Z,98021.66
2023-03-21T20:32:32.414Z,98031.28
2023-03-21T20:35:10.236Z,98039.31
2023-03-21T20:37:42.910Z,98041.78
2023-03-21T20:40:09.009Z,98041.78
2023-03-21T20:42:35.099Z,98028.63
2023-03-21T20:45:01.511Z,98033.97
2023-03-21T20:47:27.735Z,98039.09
2023-03-21T20:49:53.837Z,98040.13
2023-03-21T20:55:06.096Z,98044.66
2023-03-21T20:57:34.083Z,98034.78
2023-03-21T21:00:00.293Z,98033.16
2023-03-21T21:02:26.395Z,98033.16
2023-03-21T21:05:21.516Z,98053.47
2023-03-21T21:07:38.626Z,98055.34
2023-03-21T21:10:04.834Z,98049.19
2023-03-21T21:12:30.936Z,98043.84
2023-03-21T21:14:57.093Z,98034.78
2023-03-21T21:17:42.856Z,98033.16
2023-03-21T21:20:12.460Z,98023.50
2023-03-21T21:22:39.160Z,98027.00
2023-03-21T21:25:05.964Z,98031.53
2023-03-21T21:27:32.130Z,98025.94
2023-03-21T21:29:58.310Z,98027.81
2023-03-21T21:32:25.682Z,98024.31
2023-03-21T21:34:51.837Z,98027.81
2023-03-21T21:37:17.957Z,98020.84
2023-03-21T21:39:44.169Z,98020.00
2023-03-21T21:42:10.320Z,98024.31
2023-03-21T21:44:36.464Z,98020.84
2023-03-21T21:47:02.575Z,98018.16
2023-03-21T21:49:28.662Z,98021.66
2023-03-21T21:51:54.807Z,98020.00
2023-03-21T21:54:20.926Z,98016.50
2023-03-21T21:56:47.025Z,98003.16
2023-03-21T21:59:13.614Z,98010.16
2023-03-21T22:01:39.734Z,98019.19
2023-03-21T22:04:05.843Z,98010.16
2023-03-21T22:06:31.965Z,98011.16
2023-03-21T22:08:58.082Z,98006.63
2023-03-21T22:11:24.266Z,98014.06
2023-03-21T22:13:50.376Z,98000.47
2023-03-21T22:16:16.485Z,98005.81
2023-03-21T22:18:42.594Z,98007.69
2023-03-21T22:21:08.735Z,97994.13
2023-03-21T22:23:34.862Z,97997.81
2023-03-21T22:26:01.067Z,97997.00
2023-03-21T22:28:27.243Z,97997.00
2023-03-21T22:30:53.443Z,97997.00
2023-03-21T22:33:19.555Z,98000.72
2023-03-21T22:35:45.731Z,98000.47
2023-03-21T22:38:11.880Z,97999.66
2023-03-21T22:40:38.530Z,98008.50
2023-03-21T22:43:04.839Z,97996.19
2023-03-21T22:45:31.006Z,97995.38
2023-03-21T22:47:57.154Z,98002.34
2023-03-21T22:50:23.347Z,97996.19
2023-03-21T22:52:49.542Z,97995.38
2023-03-21T22:55:15.765Z,97997.19
2023-03-21T22:57:41.905Z,98006.88
2023-03-21T23:00:08.056Z,98009.53
2023-03-21T23:02:34.168Z,98014.06
2023-03-21T23:05:00.782Z,98006.06
2023-03-21T23:07:26.926Z,97999.66
2023-03-21T23:09:53.121Z,98002.34
2023-03-21T23:12:19.331Z,97994.53
2023-03-21T23:14:45.429Z,97999.88
2023-03-21T23:17:11.528Z,97990.03
2023-03-21T23:19:40.491Z,97989.19
2023-03-21T23:22:07.099Z,97993.50
2023-03-21T23:24:33.235Z,97990.03
2023-03-21T23:26:59.395Z,97982.00
2023-03-21T23:29:25.520Z,97991.84
2023-03-21T23:31:51.644Z,97993.50
2023-03-21T23:34:17.753Z,97993.50
2023-03-21T23:36:43.857Z,97990.03
2023-03-21T23:39:09.976Z,97992.69
2023-03-21T23:41:36.144Z,97993.50
2023-03-21T23:44:02.258Z,97986.50
2023-03-21T23:46:28.481Z,97988.16
2023-03-21T23:48:54.643Z,97990.03
2023-03-21T23:51:20.789Z,97986.31
2023-03-21T23:53:46.914Z,97982.00
2023-03-21T23:56:13.116Z,97974.81
2023-03-21T23:58:39.302Z,97983.84
